EHRD/RTM METAR and TAF weather

Enter ICAO airport designator
Station Type Date Time Source
EHRD METAR 2019/06/18 16:55 UTC NOAA

EHRD 181655Z AUTO 36006KT 310V040 9999 NSC 21/14 Q1012 NOSIG


Station Type Date Time Source
EHRD Decoded METAR 2019/06/18 16:55 UTC NOAA

Rotterdam Airport Zestienhoven, Netherlands (EHRD) 51-57N 004-27E -4M
Jun 18, 2019 - 12:55 PM EDT / 2019.06.18 1655 UTC
Wind: from the N (360 degrees) at 7 MPH (6 KT) (direction variable):0
Visibility: greater than 7 mile(s):0
Temperature: 69 F (21 C)
Dew Point: 57 F (14 C)
Relative Humidity: 64%
Pressure (altimeter): 29.88 in. Hg (1012 hPa)
ob: EHRD 181655Z AUTO 36006KT 310V040 9999 NSC 21/14 Q1012 NOSIG
cycle: 17

Station Type Date Time Source
EHRD TAF 2019/06/18 18:25 UTC NOAA

TAF COR EHRD 181719Z 1818/1924 35006KT CAVOK
BECMG 1818/1821 06007KT PROB30
TEMPO 1905/1909 24020G30KT 4000 SHRA TSRA SCT060CB
BECMG 1909/1912 25010KT PROB40
TEMPO 1916/1919 27020G33KT 2000 TSRAGR SCT050CB PROB30
TEMPO 1922/1924 5000 SHRA TSRA SCT050CB

Example: see airport list